Time;durP1;ratioP1;P1;durP2;ratioP2;P2;SDS_P1;SDS_P2;PMS_P1;PMS_P2;Temp;Humidity;BMP_temperature;BMP_pressure;BME280_temperature;BME280_humidity;BME280_pressure;Samples;Min_cycle;Max_cycle;Signal;HPM_P1;HPM_P2
2022/10/20 00:01:18;;;;;;;8.68;4.95;;;8.10;99.90;;;;;;4947229;28;20043;-69
2022/10/20 00:03:44;;;;;;;6.95;4.30;;;8.00;99.90;;;;;;4946589;28;20047;-69
2022/10/20 00:06:11;;;;;;;8.77;4.90;;;8.00;99.90;;;;;;4947215;28;20043;-72
2022/10/20 00:08:38;;;;;;;8.10;4.68;;;8.00;99.90;;;;;;4946586;28;20054;-69
2022/10/20 00:11:04;;;;;;;9.93;4.75;;;7.90;99.90;;;;;;4945950;28;20039;-68
2022/10/20 00:13:30;;;;;;;11.43;4.80;;;7.90;99.90;;;;;;4949728;28;20087;-69
2022/10/20 00:15:57;;;;;;;13.55;4.75;;;7.90;99.90;;;;;;4948857;28;20086;-68
2022/10/20 00:18:23;;;;;;;9.18;4.80;;;7.90;99.90;;;;;;4948876;28;20468;-69
2022/10/20 00:20:50;;;;;;;11.48;5.03;;;7.80;99.90;;;;;;4949342;28;20130;-69
2022/10/20 00:23:15;;;;;;;10.15;5.35;;;7.80;99.90;;;;;;4947784;28;20066;-69
2022/10/20 00:25:41;;;;;;;12.93;5.35;;;7.70;99.90;;;;;;4946115;28;20051;-69
2022/10/20 00:28:06;;;;;;;8.65;5.03;;;7.70;99.90;;;;;;4945835;28;20042;-69
2022/10/20 00:30:33;;;;;;;10.90;5.03;;;7.70;99.90;;;;;;4947013;28;20035;-69
2022/10/20 00:32:59;;;;;;;11.05;4.88;;;7.70;99.90;;;;;;4947452;28;20074;-69
2022/10/20 00:35:25;;;;;;;13.68;5.38;;;7.70;99.90;;;;;;4946984;28;20597;-68
2022/10/20 00:37:50;;;;;;;9.90;4.88;;;7.70;99.90;;;;;;4945294;28;20043;-69
2022/10/20 00:40:16;;;;;;;11.00;5.05;;;7.60;99.90;;;;;;4945446;28;20041;-70
2022/10/20 00:42:46;;;;;;;18.08;4.65;;;7.70;99.90;;;;;;4945391;28;20078;-69
2022/10/20 00:45:16;;;;;;;10.73;4.90;;;7.70;99.90;;;;;;4946312;28;21538;-68
2022/10/20 00:47:53;;;;;;;9.80;5.25;;;7.60;99.90;;;;;;4946418;28;20035;-69
2022/10/20 00:50:24;;;;;;;12.38;5.10;;;7.60;99.90;;;;;;4946129;28;20039;-70
2022/10/20 00:52:51;;;;;;;10.57;5.10;;;7.60;99.90;;;;;;4946211;28;20304;-69
2022/10/20 00:55:23;;;;;;;7.30;4.95;;;7.60;99.90;;;;;;4946221;28;20043;-69
2022/10/20 00:57:51;;;;;;;10.60;4.93;;;7.50;99.90;;;;;;4946652;28;20122;-69
2022/10/20 01:00:17;;;;;;;9.25;4.90;;;7.50;99.90;;;;;;4946201;28;20507;-69
2022/10/20 01:02:44;;;;;;;7.68;5.05;;;7.50;99.90;;;;;;4944311;28;20054;-70
2022/10/20 01:05:11;;;;;;;9.45;5.18;;;7.50;99.90;;;;;;4946715;28;20051;-69
2022/10/20 01:07:37;;;;;;;10.13;5.10;;;7.50;99.90;;;;;;4947579;28;20384;-70
2022/10/20 01:10:04;;;;;;;11.82;4.80;;;7.50;99.90;;;;;;4944326;28;20051;-69
2022/10/20 01:12:44;;;;;;;14.85;5.47;;;7.50;99.90;;;;;;4943846;28;20261;-70
2022/10/20 01:15:44;;;;;;;8.43;4.68;;;7.50;99.90;;;;;;4943547;28;20070;-68
2022/10/20 01:18:18;;;;;;;10.48;4.45;;;7.50;99.90;;;;;;4944537;28;20310;-69
2022/10/20 01:21:11;;;;;;;11.32;5.35;;;7.50;99.90;;;;;;4955670;28;20048;-69
2022/10/20 01:23:54;;;;;;;8.27;4.90;;;7.50;99.90;;;;;;4943721;28;20137;-70
2022/10/20 01:26:38;;;;;;;10.15;4.80;;;7.50;99.90;;;;;;4944389;28;20047;-69
2022/10/20 01:29:28;;;;;;;10.63;4.82;;;7.50;99.90;;;;;;4945094;28;20042;-68
2022/10/20 01:32:20;;;;;;;6.45;4.40;;;7.50;99.90;;;;;;4947187;28;20047;-68
2022/10/20 01:34:53;;;;;;;7.80;4.80;;;7.40;99.90;;;;;;4946516;28;20043;-70
2022/10/20 01:37:29;;;;;;;7.40;4.70;;;7.40;99.90;;;;;;4943455;28;20051;-69
2022/10/20 01:40:41;;;;;;;7.55;4.60;;;7.30;99.90;;;;;;4944627;28;20142;-70
2022/10/20 01:43:10;;;;;;;7.93;4.68;;;7.30;99.90;;;;;;4951666;28;20050;-69
2022/10/20 01:45:39;;;;;;;11.38;5.00;;;7.30;99.90;;;;;;4943164;28;20843;-68
2022/10/20 01:48:06;;;;;;;7.05;4.68;;;7.30;99.90;;;;;;4943118;28;20044;-69
2022/10/20 01:50:37;;;;;;;9.40;4.90;;;7.30;99.90;;;;;;4945433;28;20390;-70
2022/10/20 01:53:02;;;;;;;10.65;5.00;;;7.30;99.90;;;;;;4944622;28;20051;-69
2022/10/20 01:55:29;;;;;;;10.23;5.13;;;7.40;99.90;;;;;;4944540;28;20051;-70
2022/10/20 01:58:15;;;;;;;9.88;4.80;;;7.30;99.90;;;;;;4944880;28;20126;-70
2022/10/20 02:00:43;;;;;;;8.48;4.93;;;7.30;99.90;;;;;;4943466;28;20043;-69
2022/10/20 02:03:37;;;;;;;6.65;5.05;;;7.30;99.90;;;;;;4944096;28;20058;-69
2022/10/20 02:06:26;;;;;;;11.20;5.25;;;7.30;99.90;;;;;;4945498;28;20047;-69
2022/10/20 02:08:56;;;;;;;9.60;4.97;;;7.30;99.90;;;;;;4943087;28;20581;-70
2022/10/20 02:11:58;;;;;;;8.63;4.60;;;7.30;99.90;;;;;;4943931;28;20053;-69
2022/10/20 02:14:24;;;;;;;9.68;4.85;;;7.30;99.90;;;;;;4914315;28;20043;-69
2022/10/20 02:16:55;;;;;;;6.45;4.93;;;7.20;99.90;;;;;;4947176;28;20078;-69
2022/10/20 02:19:24;;;;;;;6.68;5.13;;;7.20;99.90;;;;;;4944075;28;20165;-68
2022/10/20 02:21:52;;;;;;;9.93;5.32;;;7.20;99.90;;;;;;4945902;28;20055;-70
2022/10/20 02:24:20;;;;;;;8.00;5.18;;;7.20;99.90;;;;;;4942554;28;20051;-69
2022/10/20 02:26:46;;;;;;;8.93;5.05;;;7.20;99.90;;;;;;4944217;28;20054;-69
2022/10/20 02:29:19;;;;;;;9.20;5.43;;;7.20;99.90;;;;;;4945794;28;20086;-70
2022/10/20 02:31:45;;;;;;;11.55;5.38;;;7.20;99.90;;;;;;4946325;28;20051;-69
2022/10/20 02:34:12;;;;;;;7.35;5.38;;;7.20;99.90;;;;;;4945899;28;20038;-70
2022/10/20 02:36:40;;;;;;;12.18;5.28;;;7.20;99.90;;;;;;4944315;28;20047;-69
2022/10/20 02:39:07;;;;;;;13.07;5.93;;;7.20;99.90;;;;;;4941977;28;20043;-69
2022/10/20 02:41:32;;;;;;;9.32;5.63;;;7.20;99.90;;;;;;4944295;28;20054;-69
2022/10/20 02:43:58;;;;;;;11.35;5.93;;;7.20;99.90;;;;;;4942766;28;20051;-70
2022/10/20 02:46:23;;;;;;;9.50;5.97;;;7.20;99.90;;;;;;4938620;28;20050;-69
2022/10/20 02:48:49;;;;;;;9.18;5.93;;;7.20;99.90;;;;;;4942468;28;20106;-69
2022/10/20 02:51:16;;;;;;;9.98;5.90;;;7.20;99.90;;;;;;4944492;28;20046;-69
2022/10/20 02:53:42;;;;;;;9.50;5.75;;;7.10;99.90;;;;;;4945519;28;20101;-70
2022/10/20 02:56:08;;;;;;;7.93;5.57;;;7.10;99.90;;;;;;4944561;28;20043;-68
2022/10/20 02:58:33;;;;;;;10.38;6.00;;;7.10;99.90;;;;;;4943876;28;20089;-69
2022/10/20 03:00:59;;;;;;;11.23;6.03;;;7.10;99.90;;;;;;4943973;28;20110;-70
2022/10/20 03:03:24;;;;;;;10.18;6.05;;;7.10;99.90;;;;;;4944833;28;20047;-70
2022/10/20 03:05:50;;;;;;;9.95;5.97;;;7.10;99.90;;;;;;4947952;28;20502;-70
2022/10/20 03:08:16;;;;;;;12.98;6.65;;;7.10;99.90;;;;;;4944958;28;21746;-68
2022/10/20 03:10:41;;;;;;;7.90;6.32;;;7.10;99.90;;;;;;4943552;28;20036;-70
2022/10/20 03:13:07;;;;;;;8.80;6.18;;;7.10;99.90;;;;;;4943906;28;20086;-69
2022/10/20 03:15:33;;;;;;;12.32;6.53;;;7.10;99.90;;;;;;4945487;28;20461;-69
2022/10/20 03:17:59;;;;;;;11.00;6.93;;;7.10;99.90;;;;;;4946040;28;20044;-70
2022/10/20 03:20:25;;;;;;;12.35;6.82;;;7.10;99.90;;;;;;4944753;28;20161;-69
2022/10/20 03:22:50;;;;;;;12.15;6.90;;;7.10;99.90;;;;;;4942829;28;20417;-70
2022/10/20 03:25:16;;;;;;;16.27;9.13;;;7.10;99.90;;;;;;4945932;28;20047;-69
2022/10/20 03:27:41;;;;;;;8.98;7.00;;;7.00;99.90;;;;;;4944001;28;20063;-70
2022/10/20 03:30:07;;;;;;;9.98;6.93;;;7.00;99.90;;;;;;4942182;28;20598;-70
2022/10/20 03:32:33;;;;;;;12.93;7.55;;;7.00;99.90;;;;;;4946122;28;20477;-70
2022/10/20 03:34:59;;;;;;;10.23;7.57;;;7.00;99.90;;;;;;4944720;28;20103;-70
2022/10/20 03:37:24;;;;;;;12.13;7.55;;;7.00;99.90;;;;;;4940770;28;20050;-70
2022/10/20 03:39:50;;;;;;;8.88;7.45;;;7.00;99.90;;;;;;4942617;28;20093;-69
2022/10/20 03:42:15;;;;;;;17.25;8.07;;;7.00;99.90;;;;;;4944566;28;20146;-70
2022/10/20 03:44:43;;;;;;;11.40;7.40;;;7.00;99.90;;;;;;4944492;28;20054;-69
2022/10/20 03:47:10;;;;;;;11.02;7.50;;;7.00;99.90;;;;;;4941531;28;20199;-69
2022/10/20 03:49:36;;;;;;;13.85;9.38;;;7.00;99.90;;;;;;4944231;28;20051;-69
2022/10/20 03:52:01;;;;;;;12.00;7.70;;;7.00;99.90;;;;;;4946922;28;20043;-70
2022/10/20 03:54:27;;;;;;;21.80;19.63;;;6.90;99.90;;;;;;4949382;28;20394;-70
2022/10/20 03:56:52;;;;;;;12.02;8.57;;;6.90;99.90;;;;;;4948842;28;20094;-68
2022/10/20 03:59:18;;;;;;;10.95;8.75;;;6.90;99.90;;;;;;4949705;28;20054;-69
2022/10/20 04:01:44;;;;;;;14.18;8.55;;;6.90;99.90;;;;;;4946273;28;20078;-69
2022/10/20 04:04:10;;;;;;;12.98;9.07;;;6.90;99.90;;;;;;4947675;28;20489;-69
2022/10/20 04:06:36;;;;;;;12.13;8.60;;;6.90;99.90;;;;;;4948226;28;20070;-69
2022/10/20 04:09:03;;;;;;;13.43;9.38;;;6.90;99.90;;;;;;4947345;28;20159;-71
2022/10/20 04:11:30;;;;;;;15.70;9.57;;;6.90;99.90;;;;;;4946403;28;20043;-70
2022/10/20 04:13:55;;;;;;;15.18;11.68;;;6.90;99.90;;;;;;4945294;28;20054;-69
2022/10/20 04:16:21;;;;;;;14.63;9.52;;;7.00;99.90;;;;;;4947570;28;20051;-71
2022/10/20 04:18:47;;;;;;;12.55;9.35;;;7.00;99.90;;;;;;4943091;28;20152;-69
2022/10/20 04:21:13;;;;;;;14.30;9.43;;;7.00;99.90;;;;;;4951854;28;20042;-69
2022/10/20 04:23:39;;;;;;;14.07;9.57;;;7.00;99.90;;;;;;4951534;28;20047;-69
2022/10/20 04:26:12;;;;;;;11.15;9.45;;;7.00;99.90;;;;;;4946074;28;20043;-69
2022/10/20 04:28:38;;;;;;;12.82;9.43;;;7.00;99.90;;;;;;4946720;28;20111;-70
2022/10/20 04:31:05;;;;;;;12.82;9.93;;;7.00;99.90;;;;;;4946733;28;20494;-69
2022/10/20 04:33:31;;;;;;;13.45;10.90;;;7.00;99.90;;;;;;4946715;28;20047;-69
2022/10/20 04:36:03;;;;;;;16.52;10.77;;;7.00;99.90;;;;;;4946272;28;20047;-70
2022/10/20 04:38:30;;;;;;;15.73;10.85;;;7.00;99.90;;;;;;4944742;28;20070;-69
2022/10/20 04:40:57;;;;;;;15.55;10.80;;;7.00;99.90;;;;;;4944105;28;20057;-69
2022/10/20 04:43:23;;;;;;;14.85;10.30;;;7.00;99.90;;;;;;4947415;28;20094;-68
2022/10/20 04:45:49;;;;;;;15.15;11.20;;;7.00;99.90;;;;;;4945237;28;20055;-70
2022/10/20 04:48:16;;;;;;;13.50;11.13;;;7.00;99.90;;;;;;4944980;28;20039;-70
2022/10/20 04:50:41;;;;;;;15.05;11.45;;;7.00;99.90;;;;;;4944885;28;20118;-70
2022/10/20 04:53:08;;;;;;;14.57;11.32;;;7.00;99.90;;;;;;4950135;28;20043;-70
2022/10/20 04:55:34;;;;;;;13.32;11.50;;;7.00;99.90;;;;;;4948830;28;20146;-68
2022/10/20 04:57:59;;;;;;;14.32;11.48;;;7.00;99.90;;;;;;4947582;28;20043;-68
2022/10/20 05:00:25;;;;;;;14.43;11.25;;;7.00;99.90;;;;;;4949556;28;20110;-69
2022/10/20 05:02:50;;;;;;;15.32;11.68;;;7.00;99.90;;;;;;4947161;28;20054;-68
2022/10/20 05:05:16;;;;;;;14.45;11.88;;;7.00;99.90;;;;;;4946527;28;20053;-69
2022/10/20 05:07:42;;;;;;;19.02;12.10;;;7.00;99.90;;;;;;4948480;28;20043;-69
2022/10/20 05:10:07;;;;;;;16.52;11.98;;;7.00;99.90;;;;;;4945455;28;20043;-69
2022/10/20 05:12:33;;;;;;;14.18;11.45;;;7.00;99.90;;;;;;4944826;28;20128;-69
2022/10/20 05:14:59;;;;;;;18.85;11.90;;;7.00;99.90;;;;;;4945991;28;20125;-69
2022/10/20 05:17:27;;;;;;;14.27;12.32;;;7.00;99.90;;;;;;4943512;28;20082;-69
2022/10/20 05:19:53;;;;;;;13.75;11.75;;;7.00;99.90;;;;;;4965622;28;20516;-70
2022/10/20 05:22:18;;;;;;;18.08;12.50;;;7.00;99.90;;;;;;4942993;28;20035;-69
2022/10/20 05:24:44;;;;;;;15.20;11.82;;;7.00;99.90;;;;;;4946181;28;20053;-69
2022/10/20 05:27:09;;;;;;;15.80;13.15;;;7.00;99.90;;;;;;4945467;28;20130;-69
2022/10/20 05:29:35;;;;;;;16.50;12.52;;;6.90;99.90;;;;;;4944873;28;20097;-69
2022/10/20 05:32:00;;;;;;;20.20;15.45;;;7.00;99.90;;;;;;4944422;28;20062;-69
2022/10/20 05:34:26;;;;;;;17.77;13.20;;;6.90;99.90;;;;;;4945979;28;20494;-68
2022/10/20 05:36:53;;;;;;;14.48;12.65;;;7.00;99.90;;;;;;4946491;28;20494;-70
2022/10/20 05:39:18;;;;;;;19.67;13.77;;;7.00;99.90;;;;;;4952097;28;20097;-69
2022/10/20 05:41:44;;;;;;;18.20;12.80;;;6.90;99.90;;;;;;4958558;28;20050;-69
2022/10/20 05:44:12;;;;;;;18.08;13.23;;;7.00;99.90;;;;;;4945836;28;20133;-69
2022/10/20 05:46:40;;;;;;;17.67;12.70;;;7.00;99.90;;;;;;4942373;28;20057;-68
2022/10/20 05:49:06;;;;;;;16.30;12.93;;;7.00;99.90;;;;;;4944951;28;20138;-69
2022/10/20 05:51:35;;;;;;;14.50;12.48;;;6.90;99.90;;;;;;4943430;28;20477;-68
2022/10/20 05:54:01;;;;;;;15.57;13.73;;;6.90;99.90;;;;;;4960563;28;20054;-69
2022/10/20 05:56:28;;;;;;;15.02;13.07;;;6.90;99.90;;;;;;4952254;29;20043;-69
2022/10/20 05:58:54;;;;;;;15.98;13.95;;;6.90;99.90;;;;;;4954864;28;20509;-70
2022/10/20 06:01:23;;;;;;;16.50;13.77;;;6.90;99.90;;;;;;4952642;28;20122;-69
2022/10/20 06:03:59;;;;;;;15.13;13.27;;;6.90;99.90;;;;;;4950872;29;20094;-69
2022/10/20 06:06:27;;;;;;;20.38;14.10;;;6.90;99.90;;;;;;4955340;28;20138;-69
2022/10/20 06:08:53;;;;;;;19.08;13.77;;;6.90;99.90;;;;;;4952838;28;20097;-69
2022/10/20 06:11:21;;;;;;;15.88;13.50;;;6.90;99.90;;;;;;4945397;28;20047;-69
2022/10/20 06:13:46;;;;;;;19.48;14.45;;;6.90;99.90;;;;;;4959200;28;20133;-69
2022/10/20 06:16:24;;;;;;;15.40;12.82;;;6.90;99.90;;;;;;4947096;28;20142;-69
2022/10/20 06:18:51;;;;;;;16.90;12.90;;;6.90;99.90;;;;;;4951081;28;20551;-69
2022/10/20 06:21:19;;;;;;;17.05;14.98;;;6.90;99.90;;;;;;4948331;28;20438;-70
2022/10/20 06:23:45;;;;;;;17.00;13.73;;;6.90;99.90;;;;;;4951878;28;20046;-68
2022/10/20 06:26:16;;;;;;;16.00;13.85;;;7.00;99.90;;;;;;4951793;29;20536;-69
2022/10/20 06:28:42;;;;;;;17.38;14.52;;;7.00;99.90;;;;;;4953596;28;20043;-69
2022/10/20 06:31:23;;;;;;;16.58;13.52;;;7.00;99.90;;;;;;4952437;28;20035;-69
2022/10/20 06:33:49;;;;;;;19.58;14.55;;;7.00;99.90;;;;;;4950048;28;20047;-69
2022/10/20 06:36:15;;;;;;;18.48;14.30;;;7.00;99.90;;;;;;4956632;28;20070;-69
2022/10/20 06:38:41;;;;;;;17.40;14.57;;;7.00;99.90;;;;;;4944075;28;20050;-69
2022/10/20 06:41:11;;;;;;;21.83;14.65;;;7.00;99.90;;;;;;4953234;28;20039;-69
2022/10/20 06:43:37;;;;;;;23.13;14.55;;;7.00;99.90;;;;;;4969336;28;20055;-69
2022/10/20 06:46:07;;;;;;;19.63;14.55;;;7.10;99.90;;;;;;4958337;28;20034;-69
2022/10/20 06:48:34;;;;;;;18.13;14.88;;;7.10;99.90;;;;;;4952464;28;20438;-69
2022/10/20 06:51:02;;;;;;;17.27;14.05;;;7.10;99.90;;;;;;4957962;28;20043;-70
2022/10/20 06:53:28;;;;;;;16.33;14.30;;;7.10;99.90;;;;;;4954314;28;20053;-68
2022/10/20 06:55:58;;;;;;;16.50;14.73;;;7.10;99.90;;;;;;4953897;28;20074;-69
2022/10/20 06:58:24;;;;;;;20.15;15.43;;;7.20;99.90;;;;;;4956996;28;20516;-69
2022/10/20 07:01:06;;;;;;;19.90;15.13;;;7.20;99.90;;;;;;4954693;28;20048;-69
2022/10/20 07:03:33;;;;;;;;;;;7.20;99.90;;;;;;4958191;28;20050;-69
2022/10/20 07:05:59;;;;;;;17.92;14.45;;;7.30;99.90;;;;;;4961012;28;20326;-69
2022/10/20 07:08:30;;;;;;;16.25;14.57;;;7.30;99.90;;;;;;4955158;28;20039;-69
2022/10/20 07:11:01;;;;;;;18.40;15.13;;;7.30;99.90;;;;;;4952261;28;20051;-68
2022/10/20 07:13:28;;;;;;;21.58;14.73;;;7.30;99.90;;;;;;4952070;28;20086;-70
2022/10/20 07:15:55;;;;;;;16.08;14.10;;;7.40;99.90;;;;;;4956141;28;20051;-69
2022/10/20 07:18:21;;;;;;;16.75;14.48;;;7.40;99.90;;;;;;4955899;28;20134;-69
2022/10/20 07:20:46;;;;;;;18.38;14.63;;;7.40;99.90;;;;;;4955344;28;20540;-69
2022/10/20 07:23:12;;;;;;;18.73;14.70;;;7.50;99.90;;;;;;4957372;28;20379;-69
2022/10/20 07:25:37;;;;;;;18.23;14.98;;;7.50;99.90;;;;;;4959793;28;20090;-69
2022/10/20 07:28:03;;;;;;;18.55;14.27;;;7.50;99.90;;;;;;4958505;28;20490;-69
2022/10/20 07:30:28;;;;;;;21.10;14.52;;;7.60;99.90;;;;;;4959755;28;20050;-69
2022/10/20 07:32:54;;;;;;;19.42;13.73;;;7.60;99.90;;;;;;4960769;28;20505;-69
2022/10/20 07:35:19;;;;;;;16.40;14.07;;;7.70;99.90;;;;;;4958674;28;20039;-69
2022/10/20 07:37:45;;;;;;;17.25;14.82;;;7.70;99.90;;;;;;4959389;28;20043;-70
2022/10/20 07:40:13;;;;;;;17.33;15.45;;;7.70;99.90;;;;;;4960761;28;20070;-70
2022/10/20 07:42:38;;;;;;;19.23;14.70;;;7.70;99.90;;;;;;4956164;28;20061;-69
2022/10/20 07:45:05;;;;;;;17.60;15.15;;;7.80;99.90;;;;;;4953828;28;20125;-69
2022/10/20 07:47:30;;;;;;;18.85;16.58;;;7.80;99.90;;;;;;4955451;28;20078;-69
2022/10/20 07:49:56;;;;;;;18.77;14.30;;;7.90;99.90;;;;;;4950065;28;20141;-68
2022/10/20 07:52:21;;;;;;;17.35;13.23;;;7.90;99.90;;;;;;4963990;28;20089;-70
2022/10/20 07:54:47;;;;;;;16.10;14.43;;;8.00;99.90;;;;;;4958656;28;20051;-69
2022/10/20 07:57:12;;;;;;;16.05;13.35;;;8.00;99.90;;;;;;4955538;28;20529;-69
2022/10/20 07:59:38;;;;;;;15.80;13.48;;;8.10;99.90;;;;;;4957143;28;20043;-69
2022/10/20 08:02:03;;;;;;;14.38;12.45;;;8.10;99.90;;;;;;4954648;28;20039;-69
2022/10/20 08:04:30;;;;;;;17.98;12.90;;;8.20;99.90;;;;;;4955693;28;20039;-69
2022/10/20 08:06:56;;;;;;;15.35;13.73;;;8.30;99.90;;;;;;4956225;28;20510;-69
2022/10/20 08:09:22;;;;;;;14.15;12.60;;;8.30;99.90;;;;;;4959325;28;20458;-69
2022/10/20 08:11:48;;;;;;;17.20;13.00;;;8.40;99.90;;;;;;4954117;28;20090;-70
2022/10/20 08:14:13;;;;;;;17.45;12.65;;;8.40;99.90;;;;;;4961998;28;20067;-69
2022/10/20 08:16:39;;;;;;;16.17;12.65;;;8.50;99.90;;;;;;4956446;28;20077;-69
2022/10/20 08:19:05;;;;;;;15.68;13.25;;;8.50;99.90;;;;;;4958117;28;20513;-68
2022/10/20 08:21:31;;;;;;;17.52;13.50;;;8.60;99.90;;;;;;4959632;28;20043;-70
2022/10/20 08:23:57;;;;;;;13.18;11.90;;;8.60;99.90;;;;;;4960406;28;20626;-69
2022/10/20 08:26:25;;;;;;;17.08;12.00;;;8.70;99.90;;;;;;4956018;28;20051;-70
2022/10/20 08:28:52;;;;;;;13.02;11.63;;;8.80;99.90;;;;;;4958706;28;20055;-70
2022/10/20 08:31:18;;;;;;;35.65;12.95;;;8.80;99.90;;;;;;4958595;28;20126;-69
2022/10/20 08:33:44;;;;;;;17.15;13.45;;;8.90;99.90;;;;;;4958025;28;20122;-69
2022/10/20 08:36:12;;;;;;;23.65;12.27;;;8.90;99.90;;;;;;4957381;28;20130;-69
2022/10/20 08:38:40;;;;;;;15.05;11.05;;;8.90;99.90;;;;;;4959955;28;20050;-69
2022/10/20 08:41:15;;;;;;;17.30;11.88;;;9.00;99.90;;;;;;4954492;28;20046;-68
2022/10/20 08:43:41;;;;;;;15.45;11.15;;;9.10;99.90;;;;;;4958034;28;20050;-68
2022/10/20 08:46:14;;;;;;;15.30;11.40;;;9.20;99.90;;;;;;4958773;28;20036;-69
2022/10/20 08:48:41;;;;;;;15.18;11.10;;;9.20;99.90;;;;;;4962935;28;20081;-68
2022/10/20 08:51:16;;;;;;;15.05;11.02;;;9.30;99.90;;;;;;4959650;28;20074;-69
2022/10/20 08:53:42;;;;;;;18.30;11.52;;;9.40;99.90;;;;;;4962137;28;20101;-68
2022/10/20 08:56:12;;;;;;;16.00;10.98;;;9.50;99.90;;;;;;4955953;28;20039;-68
2022/10/20 08:58:42;;;;;;;14.70;11.07;;;9.50;99.90;;;;;;4957178;28;20047;-69
2022/10/20 09:01:26;;;;;;;13.30;11.40;;;9.50;99.90;;;;;;4958801;28;20138;-67
2022/10/20 09:04:02;;;;;;;29.38;11.77;;;9.50;99.90;;;;;;4953221;28;20776;-68
2022/10/20 09:06:27;;;;;;;15.05;11.15;;;9.60;99.90;;;;;;4957068;28;20049;-67
2022/10/20 09:08:54;;;;;;;12.80;11.20;;;9.70;99.90;;;;;;4949500;28;20043;-69
2022/10/20 09:11:24;;;;;;;17.25;10.38;;;9.70;99.90;;;;;;4957778;28;20502;-68
2022/10/20 09:13:50;;;;;;;99.10;14.23;;;9.80;99.90;;;;;;4953567;28;20059;-69
2022/10/20 09:16:26;;;;;;;676.78;41.80;;;9.80;99.90;;;;;;4953228;28;20047;-68
2022/10/20 09:18:58;;;;;;;35.55;10.73;;;9.90;99.90;;;;;;4957347;28;20157;-67
2022/10/20 09:21:24;;;;;;;23.48;11.20;;;10.00;99.90;;;;;;4959104;28;20044;-68
2022/10/20 09:23:53;;;;;;;19.13;9.10;;;9.90;99.90;;;;;;4957008;28;20049;-68
2022/10/20 09:26:31;;;;;;;14.07;9.93;;;10.00;99.90;;;;;;4961192;28;20414;-68
2022/10/20 09:29:12;;;;;;;11.48;10.27;;;10.10;99.90;;;;;;4954592;28;20521;-67
2022/10/20 09:31:44;;;;;;;319.77;227.75;;;10.20;99.90;;;;;;4960909;28;20051;-69
2022/10/20 09:34:30;;;;;;;616.25;521.15;;;10.30;99.90;;;;;;4960804;28;20047;-68
2022/10/20 09:37:08;;;;;;;633.70;568.65;;;10.60;99.90;;;;;;4954600;28;20046;-68
2022/10/20 09:39:46;;;;;;;489.50;440.15;;;11.70;99.90;;;;;;4957261;28;20066;-69
2022/10/20 09:42:32;;;;;;;606.85;547.38;;;17.20;99.90;;;;;;4954863;28;20070;-67
2022/10/20 09:45:18;;;;;;;829.25;742.28;;;20.80;99.90;;;;;;4959195;28;20147;-70
2022/10/20 09:47:46;;;;;;;1480.03;907.00;;;21.70;90.80;;;;;;4962044;28;20047;-68
2022/10/20 09:50:27;;;;;;;1037.88;825.22;;;21.90;86.70;;;;;;4956570;28;20446;-69
2022/10/20 09:52:54;;;;;;;973.13;759.30;;;21.30;85.80;;;;;;4951916;28;20101;-70
2022/10/20 09:55:27;;;;;;;1656.20;826.13;;;21.20;89.90;;;;;;4949877;28;20498;-69
2022/10/20 09:57:55;;;;;;;1060.22;819.20;;;21.20;82.20;;;;;;4960165;28;20054;-69
2022/10/20 10:00:36;;;;;;;600.55;539.95;;;21.60;84.50;;;;;;4960476;28;20105;-69
2022/10/20 10:03:20;;;;;;;392.15;352.23;;;20.90;81.30;;;;;;4954696;28;20095;-70
2022/10/20 10:05:57;;;;;;;624.38;555.83;;;20.50;86.30;;;;;;4957868;28;20039;-70
2022/10/20 10:08:25;;;;;;;69.63;62.28;;;20.10;89.50;;;;;;4958167;28;20042;-70
2022/10/20 10:11:03;;;;;;;30.85;26.98;;;19.30;88.90;;;;;;4952531;28;20501;-68
2022/10/20 10:13:36;;;;;;;28.92;21.85;;;18.30;90.40;;;;;;4956231;28;20078;-69
2022/10/20 10:16:05;;;;;;;9.93;7.65;;;17.10;92.30;;;;;;4950584;28;20043;-68
2022/10/20 10:18:31;;;;;;;9.85;8.13;;;16.50;96.50;;;;;;4953412;28;20047;-68
2022/10/20 10:21:09;;;;;;;31.17;28.17;;;15.80;99.50;;;;;;4951823;28;20546;-68
2022/10/20 10:23:49;;;;;;;19.67;13.50;;;15.20;99.90;;;;;;4954199;28;20375;-68
2022/10/20 10:26:33;;;;;;;9.95;6.57;;;14.70;99.90;;;;;;4952658;28;20126;-69
2022/10/20 10:28:59;;;;;;;21.67;19.52;;;14.40;99.90;;;;;;4944813;28;20043;-72
2022/10/20 10:31:25;;;;;;;18.85;14.68;;;14.20;99.90;;;;;;4953432;28;20061;-68
2022/10/20 10:34:05;;;;;;;24.05;20.35;;;14.00;99.90;;;;;;4949606;28;20122;-69
2022/10/20 10:36:34;;;;;;;185.93;142.57;;;13.90;99.90;;;;;;4953575;28;20527;-69
2022/10/20 10:39:01;;;;;;;47.38;30.98;;;13.80;99.90;;;;;;4954146;28;20191;-69
2022/10/20 10:41:55;;;;;;;175.30;144.63;;;13.80;99.90;;;;;;4948177;28;20058;-70
2022/10/20 10:44:40;;;;;;;289.67;224.23;;;13.70;99.90;;;;;;4951933;28;20051;-68
2022/10/20 10:47:27;;;;;;;170.20;132.82;;;13.70;99.90;;;;;;4951002;28;20050;-68
2022/10/20 10:50:08;;;;;;;63.85;47.78;;;13.70;99.90;;;;;;4949034;28;20407;-68
2022/10/20 10:52:48;;;;;;;734.17;599.80;;;13.70;99.90;;;;;;4957812;28;20076;-68
2022/10/20 10:55:26;;;;;;;49.83;37.58;;;13.70;99.90;;;;;;4958434;28;20047;-69
2022/10/20 10:58:14;;;;;;;51.53;33.40;;;13.90;99.90;;;;;;4954862;28;20062;-68
2022/10/20 11:01:05;;;;;;;78.85;51.72;;;14.00;99.90;;;;;;4958256;28;20569;-69
2022/10/20 11:04:02;;;;;;;350.13;212.20;;;14.00;99.90;;;;;;4953467;28;20047;-68
2022/10/20 11:07:03;;;;;;;43.03;28.38;;;14.10;99.90;;;;;;4957966;28;20047;-70
2022/10/20 11:10:06;;;;;;;76.53;68.60;;;14.10;99.90;;;;;;4950439;28;20058;-70
2022/10/20 11:12:40;;;;;;;;;;;14.00;99.90;;;;;;4954497;29;20058;-68
2022/10/20 11:15:39;;;;;;;15.63;10.98;;;14.00;99.90;;;;;;4953485;28;19961;-68
2022/10/20 11:18:04;;;;;;;16.20;12.15;;;13.90;99.90;;;;;;4955417;29;20047;-68
2022/10/20 11:20:39;;;;;;;12.63;9.23;;;13.90;99.90;;;;;;4954943;28;20517;-67
2022/10/20 11:23:28;;;;;;;17.00;12.88;;;13.90;99.90;;;;;;4953545;28;20402;-68
2022/10/20 11:26:21;;;;;;;13.65;8.93;;;13.80;99.90;;;;;;4916567;29;20055;-68
2022/10/20 11:28:50;;;;;;;67.38;42.15;;;13.80;99.90;;;;;;4945282;29;20513;-68
2022/10/20 11:31:29;;;;;;;17.55;11.57;;;13.80;99.90;;;;;;4950809;28;20529;-68
2022/10/20 11:34:17;;;;;;;20.75;14.93;;;13.70;99.90;;;;;;4948458;29;20086;-67
2022/10/20 11:36:59;;;;;;;9.48;8.43;;;13.70;99.90;;;;;;4950606;28;20043;-68
2022/10/20 11:39:56;;;;;;;263.67;200.35;;;13.70;99.90;;;;;;4951720;28;20559;-69
2022/10/20 11:42:40;;;;;;;350.15;276.52;;;13.60;99.90;;;;;;4950915;28;20047;-68
2022/10/20 11:45:31;;;;;;;316.08;266.92;;;13.50;99.90;;;;;;4952420;28;20359;-68
2022/10/20 11:48:11;;;;;;;38.08;29.38;;;13.50;99.90;;;;;;4953803;28;20043;-68
2022/10/20 11:50:37;;;;;;;19.25;15.50;;;13.50;99.90;;;;;;4952737;28;20050;-68
2022/10/20 11:53:24;;;;;;;16.42;11.88;;;13.50;99.90;;;;;;4961677;28;20044;-69
2022/10/20 11:56:14;;;;;;;18.45;11.32;;;13.50;99.90;;;;;;4957498;28;20502;-68
2022/10/20 11:59:11;;;;;;;14.77;12.15;;;13.50;99.90;;;;;;4952385;28;20413;-68
2022/10/20 12:01:55;;;;;;;775.03;693.22;;;13.50;99.90;;;;;;4948919;28;20051;-69
2022/10/20 12:04:35;;;;;;;1140.20;840.83;;;14.60;99.90;;;;;;4947036;28;20501;-72
2022/10/20 12:07:42;;;;;;;1113.88;820.40;;;16.70;99.90;;;;;;4944592;28;20099;-68
2022/10/20 12:10:31;;;;;;;1999.90;999.90;;;17.40;99.90;;;;;;4926240;28;20599;-69
2022/10/20 12:13:12;;;;;;;1356.95;856.35;;;18.10;99.90;;;;;;4952907;28;20054;-69
2022/10/20 12:15:52;;;;;;;1999.90;999.90;;;18.40;99.90;;;;;;4954538;28;20537;-70
2022/10/20 12:18:31;;;;;;;1844.45;971.92;;;18.50;99.90;;;;;;4950908;28;20051;-69
2022/10/20 12:21:02;;;;;;;1156.55;691.90;;;18.50;99.90;;;;;;4946160;28;20066;-69
2022/10/20 12:23:44;;;;;;;958.92;789.53;;;18.40;99.90;;;;;;4950558;28;20050;-69
2022/10/20 12:27:01;;;;;;;744.05;667.95;;;18.60;99.90;;;;;;4946943;28;20083;-69
2022/10/20 12:29:29;;;;;;;579.17;522.15;;;21.30;99.90;;;;;;4894704;29;20059;-70
2022/10/20 12:32:20;;;;;;;1246.10;892.17;;;21.60;96.70;;;;;;4945897;28;20067;-70
2022/10/20 12:34:48;;;;;;;1219.03;856.63;;;21.90;94.20;;;;;;4948600;28;20053;-70
2022/10/20 12:37:18;;;;;;;952.72;791.03;;;22.30;92.90;;;;;;4948342;28;20067;-70
2022/10/20 12:39:45;;;;;;;1846.97;997.60;;;22.00;91.40;;;;;;4962247;28;20137;-69
2022/10/20 12:42:30;;;;;;;1597.35;943.13;;;21.90;91.70;;;;;;4952670;28;20130;-69
2022/10/20 12:45:05;;;;;;;1293.32;888.60;;;21.80;90.50;;;;;;4952268;29;20043;-69
2022/10/20 12:47:34;;;;;;;1692.90;997.30;;;21.60;90.20;;;;;;4953838;28;20057;-70
2022/10/20 12:50:20;;;;;;;822.22;736.60;;;21.50;91.70;;;;;;4954393;28;20043;-70
2022/10/20 12:52:45;;;;;;;594.13;533.78;;;21.30;93.40;;;;;;4962448;28;20565;-70
2022/10/20 12:55:29;;;;;;;761.13;670.20;;;20.90;93.90;;;;;;4951703;28;20055;-69
2022/10/20 12:58:16;;;;;;;680.22;579.20;;;20.40;93.90;;;;;;4953834;28;20051;-70